createdAt,value
2017-12-17T00:01:35.539Z,54.60
2017-12-17T00:04:03.585Z,54.50
2017-12-17T00:06:32.393Z,54.40
2017-12-17T00:09:00.471Z,54.30
2017-12-17T00:11:28.533Z,54.30
2017-12-17T00:13:56.601Z,54.20
2017-12-17T00:16:24.648Z,54.10
2017-12-17T00:18:53.458Z,54.00
2017-12-17T00:21:22.281Z,53.90
2017-12-17T00:23:50.389Z,54.00
2017-12-17T00:26:18.518Z,53.90
2017-12-17T00:28:46.543Z,53.90
2017-12-17T00:31:14.558Z,53.80
2017-12-17T00:33:42.614Z,53.70
2017-12-17T00:36:10.712Z,53.60
2017-12-17T00:38:38.758Z,53.60
2017-12-17T00:41:06.800Z,53.50
2017-12-17T00:43:34.808Z,53.40
2017-12-17T00:46:02.800Z,53.40
2017-12-17T00:48:30.908Z,53.40
2017-12-17T00:50:58.970Z,53.30
2017-12-17T00:53:26.981Z,53.20
2017-12-17T00:55:55.010Z,53.20
2017-12-17T00:58:23.070Z,53.10
2017-12-17T01:00:51.145Z,53.00
2017-12-17T01:03:19.252Z,53.00
2017-12-17T01:05:48.009Z,52.80
2017-12-17T01:08:16.056Z,52.80
2017-12-17T01:10:44.075Z,52.80
2017-12-17T01:13:12.870Z,52.80
2017-12-17T01:15:41.750Z,52.70
2017-12-17T01:18:10.569Z,52.60
2017-12-17T01:20:38.560Z,52.60
2017-12-17T01:23:06.556Z,52.50
2017-12-17T01:25:34.602Z,52.50
2017-12-17T01:28:02.602Z,52.40
2017-12-17T01:30:30.610Z,52.40
2017-12-17T01:32:58.610Z,52.30
2017-12-17T01:35:26.605Z,52.30
2017-12-17T01:37:54.651Z,52.20
2017-12-17T01:40:22.718Z,52.20
2017-12-17T01:42:50.776Z,52.10
2017-12-17T01:45:18.839Z,52.10
2017-12-17T01:47:46.915Z,52.00
2017-12-17T01:50:14.990Z,52.00
2017-12-17T01:52:43.075Z,51.90
2017-12-17T01:55:11.106Z,51.90
2017-12-17T01:57:39.948Z,51.80
2017-12-17T02:00:08.080Z,51.70
2017-12-17T02:02:36.922Z,51.70
2017-12-17T02:05:04.989Z,51.70
2017-12-17T02:07:33.059Z,51.60
2017-12-17T02:10:01.139Z,51.70
2017-12-17T02:12:29.241Z,51.50
2017-12-17T02:14:57.359Z,51.60
2017-12-17T02:17:25.438Z,51.40
2017-12-17T02:19:53.478Z,51.40
2017-12-17T02:22:21.585Z,51.40
2017-12-17T02:24:49.695Z,51.40
2017-12-17T02:27:17.774Z,51.40
2017-12-17T02:29:45.893Z,51.30
2017-12-17T02:32:13.972Z,51.30
2017-12-17T02:34:42.094Z,51.30
2017-12-17T02:37:10.927Z,51.50
2017-12-17T02:39:39.043Z,51.20
2017-12-17T02:42:07.168Z,51.10
2017-12-17T02:44:35.251Z,51.20
2017-12-17T02:47:03.479Z,51.10
2017-12-17T02:49:32.335Z,51.00
2017-12-17T02:52:00.424Z,51.00
2017-12-17T02:54:28.590Z,51.00
2017-12-17T02:56:56.728Z,51.00
2017-12-17T02:59:24.810Z,51.00
2017-12-17T03:01:52.934Z,51.00
2017-12-17T03:04:21.830Z,51.00
2017-12-17T03:06:50.676Z,50.90
2017-12-17T03:09:18.782Z,51.00
2017-12-17T03:11:47.119Z,50.90
2017-12-17T03:14:15.215Z,51.00
2017-12-17T03:16:43.307Z,51.00
2017-12-17T03:19:12.190Z,50.90
2017-12-17T03:21:40.263Z,51.00
2017-12-17T03:24:08.354Z,51.00
2017-12-17T03:26:37.214Z,51.00
2017-12-17T03:29:05.291Z,51.00
2017-12-17T03:31:33.415Z,51.00
2017-12-17T03:34:01.531Z,51.00
2017-12-17T03:36:29.624Z,51.00
2017-12-17T03:38:57.781Z,51.00
2017-12-17T03:41:25.874Z,51.00
2017-12-17T03:43:54.735Z,51.00
2017-12-17T03:46:22.842Z,51.00
2017-12-17T03:48:51.695Z,51.00
2017-12-17T03:51:19.770Z,51.00
2017-12-17T03:53:47.848Z,51.00
2017-12-17T03:56:15.929Z,51.00
2017-12-17T03:58:44.027Z,51.00
2017-12-17T04:01:12.865Z,51.00
2017-12-17T04:03:41.002Z,51.00
2017-12-17T04:06:09.299Z,50.90
2017-12-17T04:08:37.401Z,50.90
2017-12-17T04:11:05.510Z,50.90
2017-12-17T04:13:33.595Z,50.90
2017-12-17T04:16:01.671Z,50.80
2017-12-17T04:18:29.723Z,50.80
2017-12-17T04:20:58.602Z,50.80
2017-12-17T04:23:27.452Z,50.70
2017-12-17T04:25:55.541Z,50.80
2017-12-17T04:28:23.630Z,50.70
2017-12-17T04:30:51.662Z,50.70
2017-12-17T04:33:19.762Z,50.60
2017-12-17T04:35:47.864Z,50.60
2017-12-17T04:38:16.723Z,50.60
2017-12-17T04:40:44.815Z,50.60
2017-12-17T04:43:13.657Z,50.50
2017-12-17T04:45:41.746Z,50.50
2017-12-17T04:48:09.841Z,50.50
2017-12-17T04:50:37.916Z,50.40
2017-12-17T04:53:06.042Z,50.40
2017-12-17T04:55:34.146Z,50.40
2017-12-17T04:58:02.234Z,50.30
2017-12-17T05:00:31.091Z,50.30
2017-12-17T05:02:59.159Z,50.40
2017-12-17T05:05:27.222Z,50.30
2017-12-17T05:07:55.321Z,50.30
2017-12-17T05:10:23.415Z,50.20
2017-12-17T05:12:52.269Z,50.20
2017-12-17T05:15:20.389Z,50.20
2017-12-17T05:17:49.266Z,50.10
2017-12-17T05:20:17.366Z,50.20
2017-12-17T05:22:45.437Z,50.10
2017-12-17T05:25:13.487Z,50.10
2017-12-17T05:27:42.386Z,50.00
2017-12-17T05:30:11.226Z,49.90
2017-12-17T05:32:39.286Z,50.00
2017-12-17T05:35:07.324Z,49.80
2017-12-17T05:37:35.430Z,49.80
2017-12-17T05:40:03.527Z,49.70
2017-12-17T05:42:31.648Z,49.70
2017-12-17T05:44:59.788Z,49.70
2017-12-17T05:47:27.888Z,49.70
2017-12-17T05:49:55.932Z,49.60
2017-12-17T05:52:24.019Z,49.50
2017-12-17T05:54:52.866Z,49.50
2017-12-17T05:57:20.958Z,49.50
2017-12-17T05:59:49.042Z,49.30
2017-12-17T06:02:17.118Z,49.30
2017-12-17T06:04:45.962Z,49.70
2017-12-17T06:07:14.042Z,49.40
2017-12-17T06:09:42.091Z,49.30
2017-12-17T06:12:10.187Z,49.30
2017-12-17T06:14:38.288Z,49.20
2017-12-17T06:17:06.372Z,49.20
2017-12-17T06:19:35.173Z,49.20
2017-12-17T06:22:04.031Z,49.20
2017-12-17T06:24:32.171Z,49.20
2017-12-17T06:27:00.235Z,49.10
2017-12-17T06:29:28.327Z,49.00
2017-12-17T06:31:56.407Z,49.00
2017-12-17T06:34:24.467Z,49.00
2017-12-17T06:36:52.567Z,48.90
2017-12-17T06:39:20.650Z,48.90
2017-12-17T06:41:48.702Z,48.90
2017-12-17T06:44:16.756Z,48.80
2017-12-17T06:46:44.834Z,48.80
2017-12-17T06:49:12.930Z,48.90
2017-12-17T06:51:41.022Z,48.70
2017-12-17T06:54:09.856Z,48.80
2017-12-17T06:56:37.886Z,48.70
2017-12-17T06:59:06.769Z,48.70
2017-12-17T07:01:35.641Z,48.70
2017-12-17T07:04:03.723Z,48.70
2017-12-17T07:06:32.686Z,48.70
2017-12-17T07:09:00.743Z,48.70
2017-12-17T07:11:28.823Z,48.70
2017-12-17T07:13:56.919Z,48.60
2017-12-17T07:16:24.991Z,48.60
2017-12-17T07:18:53.479Z,48.60
2017-12-17T07:21:21.903Z,48.60
2017-12-17T07:23:50.297Z,48.60
2017-12-17T07:26:19.173Z,48.70
2017-12-17T07:28:47.270Z,48.60
2017-12-17T07:31:15.407Z,48.60
2017-12-17T07:33:43.502Z,48.70
2017-12-17T07:36:11.638Z,48.70
2017-12-17T07:38:40.459Z,48.70
2017-12-17T07:41:08.551Z,48.70
2017-12-17T07:43:36.656Z,48.70
2017-12-17T07:46:04.735Z,48.70
2017-12-17T07:48:33.589Z,48.70
2017-12-17T07:51:01.656Z,48.80
2017-12-17T07:53:29.723Z,48.80
2017-12-17T07:55:58.698Z,48.80
2017-12-17T07:58:26.791Z,48.90
2017-12-17T08:00:54.844Z,48.80
2017-12-17T08:03:22.941Z,48.90
2017-12-17T08:05:51.048Z,49.00
2017-12-17T08:08:19.906Z,49.00
2017-12-17T08:10:48.010Z,49.00
2017-12-17T08:13:16.869Z,48.90
2017-12-17T08:15:44.930Z,48.90
2017-12-17T08:18:13.044Z,48.90
2017-12-17T08:20:41.882Z,48.80
2017-12-17T08:23:09.954Z,48.00
2017-12-17T08:25:38.032Z,47.90
2017-12-17T08:28:06.142Z,47.90
2017-12-17T08:30:34.200Z,47.80
2017-12-17T08:33:02.288Z,47.60
2017-12-17T08:35:30.381Z,47.40
2017-12-17T08:37:59.236Z,47.60
2017-12-17T08:40:27.309Z,47.60
2017-12-17T08:42:56.315Z,47.90
2017-12-17T08:45:24.362Z,47.90
2017-12-17T08:47:52.450Z,48.00
2017-12-17T08:50:20.946Z,48.20
2017-12-17T08:52:49.806Z,48.30
2017-12-17T08:55:17.899Z,48.40
2017-12-17T08:57:46.258Z,48.50
2017-12-17T09:00:14.357Z,48.70
2017-12-17T09:02:42.459Z,48.80
2017-12-17T09:05:10.536Z,48.90
2017-12-17T09:07:38.647Z,48.90
2017-12-17T09:10:06.726Z,48.90
2017-12-17T09:12:34.843Z,49.20
2017-12-17T09:15:03.674Z,49.80
2017-12-17T09:17:31.793Z,50.00
2017-12-17T09:20:00.599Z,49.90
2017-12-17T09:22:28.709Z,49.80
2017-12-17T09:24:56.782Z,49.50
2017-12-17T09:27:24.859Z,49.40
2017-12-17T09:29:53.912Z,49.40
2017-12-17T09:32:21.975Z,49.40
2017-12-17T09:34:50.778Z,49.40
2017-12-17T09:37:18.826Z,49.40
2017-12-17T09:39:47.674Z,49.40
2017-12-17T09:42:16.956Z,49.40
2017-12-17T09:44:46.340Z,49.50
2017-12-17T09:47:14.475Z,48.60
2017-12-17T09:49:42.512Z,48.70
2017-12-17T09:52:10.594Z,48.80
2017-12-17T09:54:38.741Z,49.10
2017-12-17T09:57:06.833Z,49.00
2017-12-17T09:59:36.166Z,48.80
2017-12-17T10:02:04.347Z,48.60
2017-12-17T10:04:32.416Z,48.60
2017-12-17T10:07:00.502Z,48.30
2017-12-17T10:09:29.320Z,48.30
2017-12-17T10:11:57.414Z,47.70
2017-12-17T10:14:25.509Z,47.60
2017-12-17T10:16:53.626Z,47.20
2017-12-17T10:19:21.727Z,47.10
2017-12-17T10:21:49.856Z,46.90
2017-12-17T10:24:18.734Z,46.80
2017-12-17T10:26:46.821Z,46.80
2017-12-17T10:29:15.795Z,46.70
2017-12-17T10:31:43.999Z,46.60
2017-12-17T10:34:12.072Z,46.70
2017-12-17T10:36:40.175Z,46.90
2017-12-17T10:39:08.223Z,47.00
2017-12-17T10:41:36.420Z,46.90
2017-12-17T10:44:04.562Z,47.00
2017-12-17T10:46:33.435Z,46.90
2017-12-17T10:49:02.524Z,47.00
2017-12-17T10:51:30.564Z,47.00
2017-12-17T10:53:58.682Z,47.00
2017-12-17T10:56:27.542Z,46.50
2017-12-17T10:58:55.693Z,46.50
2017-12-17T11:01:23.793Z,46.40
2017-12-17T11:03:51.945Z,46.40
2017-12-17T11:06:20.019Z,46.40
2017-12-17T11:08:48.086Z,46.40
2017-12-17T11:11:16.188Z,46.40
2017-12-17T11:13:44.279Z,46.40
2017-12-17T11:16:13.110Z,46.60
2017-12-17T11:18:41.270Z,46.60
2017-12-17T11:21:09.330Z,46.40
2017-12-17T11:23:37.402Z,46.40
2017-12-17T11:26:05.493Z,47.10
2017-12-17T11:28:33.566Z,46.70
2017-12-17T11:31:01.647Z,46.60
2017-12-17T11:33:29.707Z,46.40
2017-12-17T11:35:57.787Z,46.40
2017-12-17T11:38:25.905Z,46.30
2017-12-17T11:40:54.003Z,46.40
2017-12-17T11:43:22.094Z,46.40
2017-12-17T11:45:52.148Z,46.30
2017-12-17T11:48:20.272Z,46.30
2017-12-17T11:50:48.383Z,46.30
2017-12-17T11:53:16.469Z,46.20
2017-12-17T11:55:44.594Z,46.10
2017-12-17T11:58:12.699Z,46.00
2017-12-17T12:00:40.786Z,45.90
2017-12-17T12:03:08.887Z,45.90
2017-12-17T12:05:37.683Z,46.00
2017-12-17T12:08:05.806Z,46.00
2017-12-17T12:10:33.910Z,45.90
2017-12-17T12:13:02.834Z,46.00
2017-12-17T12:15:31.367Z,46.00
2017-12-17T12:17:59.639Z,45.90
2017-12-17T12:20:27.711Z,45.80
2017-12-17T12:22:55.819Z,45.90
2017-12-17T12:25:24.663Z,45.70
2017-12-17T12:28:01.807Z,45.70
2017-12-17T12:30:29.924Z,45.70
2017-12-17T12:32:58.012Z,45.80
2017-12-17T12:35:26.093Z,45.80
2017-12-17T12:37:54.983Z,45.70
2017-12-17T12:40:23.058Z,46.30
2017-12-17T12:42:51.890Z,45.80
2017-12-17T12:45:19.991Z,45.80
2017-12-17T12:47:48.094Z,45.70
2017-12-17T12:50:16.956Z,45.60
2017-12-17T12:52:45.023Z,45.70
2017-12-17T12:55:13.031Z,45.70
2017-12-17T12:57:41.863Z,45.60
2017-12-17T13:00:10.000Z,45.60
2017-12-17T13:02:38.871Z,45.60
2017-12-17T13:05:06.929Z,45.60
2017-12-17T13:07:35.038Z,45.60
2017-12-17T13:10:03.899Z,45.40
2017-12-17T13:12:31.991Z,45.40
2017-12-17T13:15:00.826Z,45.60
2017-12-17T13:17:28.935Z,45.60
2017-12-17T13:19:57.046Z,45.60
2017-12-17T13:22:25.900Z,45.40
2017-12-17T13:24:53.962Z,45.50
2017-12-17T13:27:22.097Z,45.40
2017-12-17T13:29:50.210Z,45.40
2017-12-17T13:32:18.293Z,45.40
2017-12-17T13:34:46.405Z,45.30
2017-12-17T13:37:14.506Z,45.40
2017-12-17T13:39:42.594Z,45.50
2017-12-17T13:42:10.662Z,45.50
2017-12-17T13:44:38.726Z,45.50
2017-12-17T13:47:06.832Z,45.50
2017-12-17T13:49:34.930Z,45.50
2017-12-17T13:52:03.030Z,45.40
2017-12-17T13:54:31.040Z,45.30
2017-12-17T13:56:59.106Z,45.30
2017-12-17T13:59:27.154Z,45.30
2017-12-17T14:01:55.228Z,45.30
2017-12-17T14:04:23.350Z,45.40
2017-12-17T14:06:52.199Z,45.40
2017-12-17T14:09:20.298Z,45.40
2017-12-17T14:11:49.157Z,46.20
2017-12-17T14:14:17.280Z,46.20
2017-12-17T14:16:45.383Z,46.30
2017-12-17T14:19:13.436Z,46.30
2017-12-17T14:21:41.527Z,46.30
2017-12-17T14:24:09.632Z,46.40
2017-12-17T14:26:37.689Z,46.40
2017-12-17T14:29:05.750Z,46.40
2017-12-17T14:31:34.085Z,46.40
2017-12-17T14:34:02.135Z,46.40
2017-12-17T14:36:30.287Z,46.30
2017-12-17T14:39:09.605Z,46.20
2017-12-17T14:41:38.522Z,46.30
2017-12-17T14:44:06.611Z,46.20
2017-12-17T14:46:35.472Z,46.20
2017-12-17T14:49:03.573Z,46.20
2017-12-17T14:51:31.662Z,46.20
2017-12-17T14:54:00.519Z,46.20
2017-12-17T14:56:28.704Z,46.20
2017-12-17T14:58:56.826Z,46.20
2017-12-17T15:01:24.938Z,46.20
2017-12-17T15:03:53.050Z,46.20
2017-12-17T15:06:21.892Z,46.30
2017-12-17T15:08:49.997Z,46.30
2017-12-17T15:11:18.068Z,46.30
2017-12-17T15:13:46.908Z,46.30
2017-12-17T15:16:15.047Z,46.30
2017-12-17T15:18:43.919Z,46.30
2017-12-17T15:21:12.002Z,46.30
2017-12-17T15:23:40.911Z,46.30
2017-12-17T15:26:08.994Z,46.20
2017-12-17T15:28:37.089Z,46.20
2017-12-17T15:31:05.217Z,46.20
2017-12-17T15:33:34.066Z,46.20
2017-12-17T15:36:02.164Z,46.20
2017-12-17T15:38:30.255Z,46.10
2017-12-17T15:40:59.003Z,46.10
2017-12-17T15:43:27.081Z,46.10
2017-12-17T15:45:55.178Z,46.10
2017-12-17T15:48:24.030Z,46.20
2017-12-17T15:50:52.056Z,46.20
2017-12-17T15:53:21.292Z,46.20
2017-12-17T15:55:49.390Z,46.20
2017-12-17T15:58:17.432Z,46.20
2017-12-17T16:00:45.522Z,46.30
2017-12-17T16:03:13.582Z,46.30
2017-12-17T16:05:41.688Z,46.40
2017-12-17T16:08:09.814Z,46.40
2017-12-17T16:10:37.972Z,46.50
2017-12-17T16:13:06.034Z,46.60
2017-12-17T16:15:34.137Z,46.60
2017-12-17T16:18:02.243Z,46.70
2017-12-17T16:20:30.334Z,46.70
2017-12-17T16:22:59.165Z,46.70
2017-12-17T16:25:27.239Z,46.70
2017-12-17T16:27:56.207Z,46.70
2017-12-17T16:30:24.351Z,46.70
2017-12-17T16:32:52.584Z,46.70
2017-12-17T16:35:20.633Z,46.70
2017-12-17T16:37:48.639Z,46.80
2017-12-17T16:40:16.651Z,46.80
2017-12-17T16:42:46.311Z,47.00
2017-12-17T16:45:14.412Z,46.90
2017-12-17T16:47:42.416Z,47.10
2017-12-17T16:50:11.219Z,47.20
2017-12-17T16:52:39.292Z,47.30
2017-12-17T16:55:08.298Z,47.40
2017-12-17T16:57:36.291Z,47.40
2017-12-17T17:00:04.332Z,47.50
2017-12-17T17:02:32.520Z,47.70
2017-12-17T17:05:00.607Z,47.80
2017-12-17T17:07:29.707Z,47.90
2017-12-17T17:09:58.522Z,47.80
2017-12-17T17:12:26.531Z,47.80
2017-12-17T17:14:54.595Z,47.70
2017-12-17T17:17:23.433Z,47.70
2017-12-17T17:19:51.426Z,47.70
2017-12-17T17:22:20.218Z,48.00
2017-12-17T17:24:48.999Z,48.00
2017-12-17T17:27:17.039Z,48.00
2017-12-17T17:29:45.076Z,48.10
2017-12-17T17:32:13.118Z,48.10
2017-12-17T17:34:41.910Z,48.10
2017-12-17T17:37:10.710Z,48.20
2017-12-17T17:39:39.531Z,48.30
2017-12-17T17:42:08.454Z,48.40
2017-12-17T17:44:36.555Z,48.90
2017-12-17T17:47:05.537Z,48.50
2017-12-17T17:49:33.555Z,48.50
2017-12-17T17:52:01.634Z,48.70
2017-12-17T17:54:29.686Z,48.70
2017-12-17T17:56:57.745Z,48.80
2017-12-17T17:59:25.746Z,48.90
2017-12-17T18:01:53.767Z,49.00
2017-12-17T18:04:22.602Z,49.00
2017-12-17T18:06:51.004Z,49.00
2017-12-17T18:09:19.968Z,49.70
2017-12-17T18:11:48.845Z,49.30
2017-12-17T18:14:16.873Z,49.30
2017-12-17T18:16:44.887Z,49.30
2017-12-17T18:19:12.935Z,49.40
2017-12-17T18:21:41.706Z,49.60
2017-12-17T18:24:10.154Z,49.60
2017-12-17T18:26:38.202Z,49.60
2017-12-17T18:29:06.401Z,49.70
2017-12-17T18:31:34.471Z,49.80
2017-12-17T18:34:02.519Z,49.80
2017-12-17T18:36:30.521Z,49.90
2017-12-17T18:38:58.512Z,50.00
2017-12-17T18:41:26.619Z,50.00
2017-12-17T18:43:55.351Z,50.00
2017-12-17T18:46:23.412Z,50.10
2017-12-17T18:48:51.446Z,50.20
2017-12-17T18:51:20.229Z,50.20
2017-12-17T18:53:49.036Z,50.30
2017-12-17T18:56:17.090Z,50.40
2017-12-17T18:58:45.838Z,50.50
2017-12-17T19:01:13.947Z,50.40
2017-12-17T19:03:42.759Z,50.40
2017-12-17T19:06:10.832Z,50.40
2017-12-17T19:08:38.823Z,50.30
2017-12-17T19:11:06.834Z,50.30
2017-12-17T19:13:35.000Z,50.30
2017-12-17T19:16:03.099Z,50.30
2017-12-17T19:18:31.918Z,50.40
2017-12-17T19:20:59.938Z,50.50
2017-12-17T19:23:28.054Z,50.50
2017-12-17T19:25:56.105Z,50.50
2017-12-17T19:28:24.874Z,50.60
2017-12-17T19:30:53.010Z,50.60
2017-12-17T19:33:21.055Z,50.60
2017-12-17T19:35:49.067Z,50.60
2017-12-17T19:38:17.064Z,50.60
2017-12-17T19:40:45.081Z,50.70
2017-12-17T19:43:13.258Z,50.70
2017-12-17T19:45:41.237Z,50.80
2017-12-17T19:48:09.867Z,50.70
2017-12-17T19:50:38.627Z,50.80
2017-12-17T19:53:06.602Z,50.80
2017-12-17T19:55:34.649Z,50.90
2017-12-17T19:58:02.733Z,50.90
2017-12-17T20:00:30.761Z,51.50
2017-12-17T20:02:58.802Z,51.00
2017-12-17T20:05:26.807Z,51.10
2017-12-17T20:07:54.804Z,51.10
2017-12-17T20:10:22.799Z,51.10
2017-12-17T20:12:50.782Z,51.20
2017-12-17T20:15:19.567Z,51.40
2017-12-17T20:17:47.563Z,51.30
2017-12-17T20:20:16.392Z,51.30
2017-12-17T20:22:44.430Z,51.30
2017-12-17T20:25:12.482Z,51.30
2017-12-17T20:27:41.306Z,51.40
2017-12-17T20:30:09.370Z,51.40
2017-12-17T20:32:37.350Z,51.40
2017-12-17T20:35:05.346Z,51.40
2017-12-17T20:37:33.427Z,51.50
2017-12-17T20:40:01.410Z,51.40
2017-12-17T20:42:29.402Z,51.40
2017-12-17T20:44:58.194Z,51.40
2017-12-17T20:47:26.982Z,51.50
2017-12-17T20:49:55.726Z,51.50
2017-12-17T20:52:23.722Z,51.50
2017-12-17T20:54:51.751Z,51.50
2017-12-17T20:57:19.754Z,51.60
2017-12-17T20:59:47.744Z,51.60
2017-12-17T21:02:16.524Z,51.80
2017-12-17T21:04:45.274Z,51.80
2017-12-17T21:07:13.241Z,51.80
2017-12-17T21:09:41.257Z,51.70
2017-12-17T21:12:10.099Z,51.80
2017-12-17T21:14:38.090Z,51.70
2017-12-17T21:17:06.071Z,51.60
2017-12-17T21:19:34.066Z,51.70
2017-12-17T21:22:02.859Z,51.80
2017-12-17T21:24:30.910Z,51.80
2017-12-17T21:26:59.747Z,51.90
2017-12-17T21:29:27.759Z,51.90
2017-12-17T21:31:55.780Z,52.00
2017-12-17T21:34:24.698Z,52.00
2017-12-17T21:36:53.523Z,52.00
2017-12-17T21:39:22.294Z,51.90
2017-12-17T21:41:50.287Z,51.90
2017-12-17T21:44:19.031Z,51.90
2017-12-17T21:46:47.041Z,51.90
2017-12-17T21:49:15.798Z,52.10
2017-12-17T21:51:43.803Z,52.10
2017-12-17T21:54:12.552Z,52.10
2017-12-17T21:56:40.550Z,52.10
2017-12-17T21:59:08.553Z,52.00
2017-12-17T22:01:36.556Z,52.00
2017-12-17T22:04:04.535Z,52.00
2017-12-17T22:06:32.513Z,51.90
2017-12-17T22:09:00.517Z,52.00
2017-12-17T22:11:28.564Z,52.00
2017-12-17T22:13:56.528Z,52.00
2017-12-17T22:16:24.524Z,52.10
2017-12-17T22:18:53.325Z,52.00
2017-12-17T22:21:21.351Z,52.00
2017-12-17T22:23:49.333Z,51.90
2017-12-17T22:26:17.331Z,51.90
2017-12-17T22:28:46.071Z,52.00
2017-12-17T22:31:14.097Z,52.00
2017-12-17T22:33:42.103Z,52.00
2017-12-17T22:36:10.105Z,52.00
2017-12-17T22:38:38.130Z,51.90
2017-12-17T22:41:06.137Z,51.90
2017-12-17T22:43:34.154Z,51.90
2017-12-17T22:46:02.656Z,52.00
2017-12-17T22:48:31.383Z,52.00
2017-12-17T22:50:59.428Z,52.00
2017-12-17T22:53:27.459Z,52.10
2017-12-17T22:55:55.464Z,52.20
2017-12-17T22:58:23.483Z,52.20
2017-12-17T23:00:52.275Z,52.20
2017-12-17T23:03:21.028Z,52.20
2017-12-17T23:05:49.029Z,52.10
2017-12-17T23:08:17.799Z,52.20
2017-12-17T23:10:45.807Z,52.20
2017-12-17T23:13:13.852Z,52.20
2017-12-17T23:15:42.667Z,52.20
2017-12-17T23:18:10.702Z,52.20
2017-12-17T23:20:38.757Z,52.20
2017-12-17T23:23:06.787Z,52.30
2017-12-17T23:25:34.906Z,52.30
2017-12-17T23:28:02.943Z,52.30
2017-12-17T23:30:31.046Z,52.40
2017-12-17T23:32:59.082Z,52.40
2017-12-17T23:35:27.050Z,52.30
2017-12-17T23:37:55.064Z,52.20
2017-12-17T23:40:23.080Z,52.30
2017-12-17T23:42:51.113Z,52.40
2017-12-17T23:45:19.126Z,52.60
2017-12-17T23:47:47.178Z,52.50
2017-12-17T23:50:15.954Z,52.40
2017-12-17T23:52:44.740Z,52.40
2017-12-17T23:55:13.542Z,52.40
2017-12-17T23:57:42.319Z,52.40
